createdAt,value
2018-04-07T00:00:14.910Z,7.91
2018-04-07T00:01:14.817Z,7.90
2018-04-07T00:02:14.703Z,7.83
2018-04-07T00:03:14.495Z,7.83
2018-04-07T00:04:14.390Z,7.85
2018-04-07T00:05:15.350Z,7.83
2018-04-07T00:06:15.221Z,7.82
2018-04-07T00:07:15.374Z,7.79
2018-04-07T00:08:15.655Z,7.82
2018-04-07T00:09:14.932Z,7.79
2018-04-07T00:10:15.090Z,7.80
2018-04-07T00:11:57.322Z,7.79
2018-04-07T00:12:57.695Z,7.80
2018-04-07T00:13:57.666Z,7.83
2018-04-07T00:14:57.364Z,7.85
2018-04-07T00:15:57.994Z,7.85
2018-04-07T00:16:57.944Z,7.82
2018-04-07T00:17:58.122Z,7.79
2018-04-07T00:18:57.757Z,7.75
2018-04-07T00:19:58.001Z,7.72
2018-04-07T00:20:57.616Z,7.73
2018-04-07T00:21:57.522Z,7.70
2018-04-07T00:22:57.689Z,7.69
2018-04-07T00:23:57.376Z,7.72
2018-04-07T00:24:57.198Z,7.73
2018-04-07T00:25:58.143Z,7.73
2018-04-07T00:26:57.722Z,7.73
2018-04-07T00:27:57.597Z,7.73
2018-04-07T00:28:57.543Z,7.73
2018-04-07T00:29:57.217Z,7.73
2018-04-07T00:30:58.087Z,7.70
2018-04-07T00:31:58.080Z,7.72
2018-04-07T00:32:57.444Z,7.70
2018-04-07T00:33:57.331Z,7.73
2018-04-07T00:34:57.940Z,7.76
2018-04-07T00:35:57.657Z,7.75
2018-04-07T00:36:57.327Z,7.75
2018-04-07T00:37:57.795Z,7.73
2018-04-07T00:38:57.501Z,7.69
2018-04-07T00:39:57.542Z,7.70
2018-04-07T00:40:57.412Z,7.70
2018-04-07T00:41:57.426Z,7.69
2018-04-07T00:43:19.010Z,7.70
2018-04-07T00:44:18.828Z,7.70
2018-04-07T00:45:19.485Z,7.75
2018-04-07T00:46:19.286Z,7.73
2018-04-07T00:47:19.286Z,7.70
2018-04-07T00:48:39.099Z,7.67
2018-04-07T00:49:39.866Z,7.66
2018-04-07T00:50:39.380Z,7.63
2018-04-07T00:51:40.111Z,7.61
2018-04-07T00:52:39.963Z,7.63
2018-04-07T00:53:39.921Z,7.61
2018-04-07T00:54:39.700Z,7.60
2018-04-07T00:55:39.678Z,7.60
2018-04-07T00:56:39.629Z,7.63
2018-04-07T00:57:39.672Z,7.60
2018-04-07T00:59:00.426Z,7.57
2018-04-07T01:00:22.205Z,7.53
2018-04-07T01:01:23.100Z,7.53
2018-04-07T01:03:05.277Z,7.51
2018-04-07T01:04:05.909Z,7.50
2018-04-07T01:05:05.538Z,7.53
2018-04-07T01:06:06.010Z,7.54
2018-04-07T01:07:27.490Z,7.56
2018-04-07T01:08:28.083Z,7.56
2018-04-07T01:09:27.770Z,7.56
2018-04-07T01:10:48.272Z,7.51
2018-04-07T01:11:48.818Z,7.53
2018-04-07T01:13:30.371Z,7.57
2018-04-07T01:14:31.136Z,7.56
2018-04-07T01:15:30.646Z,7.54
2018-04-07T01:16:30.346Z,7.56
2018-04-07T01:17:30.861Z,7.56
2018-04-07T01:18:32.335Z,7.53
2018-04-07T01:19:34.468Z,7.51
2018-04-07T01:20:30.597Z,7.54
2018-04-07T01:21:35.242Z,7.54
2018-04-07T01:23:00.445Z,7.50
2018-04-07T01:24:00.336Z,7.48
2018-04-07T01:24:59.160Z,7.48
2018-04-07T01:26:02.168Z,7.48
2018-04-07T01:27:04.117Z,7.50
2018-04-07T01:28:23.501Z,7.47
2018-04-07T01:29:24.952Z,7.42
2018-04-07T01:30:23.580Z,7.42
2018-04-07T01:31:23.648Z,7.40
2018-04-07T01:32:24.900Z,7.36
2018-04-07T01:33:27.971Z,7.35
2018-04-07T01:34:26.814Z,7.32
2018-04-07T01:35:24.396Z,7.33
2018-04-07T01:36:24.892Z,7.38
2018-04-07T01:37:25.748Z,7.36
2018-04-07T01:38:24.710Z,7.36
2018-04-07T01:39:25.021Z,7.38
2018-04-07T01:40:26.970Z,7.40
2018-04-07T01:41:25.859Z,7.40
2018-04-07T01:42:52.711Z,7.45
2018-04-07T01:43:55.828Z,7.47
2018-04-07T01:44:58.190Z,7.43
2018-04-07T01:45:52.872Z,7.40
2018-04-07T01:46:53.597Z,7.42
2018-04-07T01:47:53.408Z,7.40
2018-04-07T01:48:53.476Z,7.40
2018-04-07T01:49:55.250Z,7.39
2018-04-07T01:50:53.111Z,7.35
2018-04-07T01:52:17.383Z,7.32
2018-04-07T01:53:15.395Z,7.31
2018-04-07T01:54:15.148Z,7.32
2018-04-07T01:55:14.702Z,7.32
2018-04-07T01:56:15.634Z,7.36
2018-04-07T01:57:15.624Z,7.36
2018-04-07T01:58:15.599Z,7.36
2018-04-07T01:59:15.271Z,7.35
2018-04-07T02:00:17.564Z,7.35
2018-04-07T02:01:45.405Z,7.36
2018-04-07T02:02:38.457Z,7.32
2018-04-07T02:03:38.070Z,7.35
2018-04-07T02:04:44.094Z,7.38
2018-04-07T02:05:40.314Z,7.38
2018-04-07T02:06:38.131Z,7.36
2018-04-07T02:07:40.121Z,7.33
2018-04-07T02:08:39.161Z,7.29
2018-04-07T02:09:41.570Z,7.28
2018-04-07T02:10:41.705Z,7.23
2018-04-07T02:11:41.217Z,7.18
2018-04-07T02:12:38.227Z,7.24
2018-04-07T02:14:00.780Z,7.24
2018-04-07T02:15:22.035Z,7.21
2018-04-07T02:16:23.104Z,7.23
2018-04-07T02:17:22.654Z,7.18
2018-04-07T02:18:22.452Z,7.20
2018-04-07T02:19:22.096Z,7.15
2018-04-07T02:20:22.651Z,7.13
2018-04-07T02:21:22.531Z,7.10
2018-04-07T02:22:22.125Z,7.07
2018-04-07T02:23:23.238Z,7.07
2018-04-07T02:24:22.835Z,7.07
2018-04-07T02:25:22.788Z,7.07
2018-04-07T02:26:22.271Z,7.10
2018-04-07T02:27:22.727Z,7.13
2018-04-07T02:28:23.456Z,7.11
2018-04-07T02:29:22.086Z,7.07
2018-04-07T02:30:23.356Z,7.06
2018-04-07T02:31:23.916Z,7.06
2018-04-07T02:32:23.438Z,7.07
2018-04-07T02:33:23.207Z,7.06
2018-04-07T02:34:22.642Z,7.02
2018-04-07T02:35:22.312Z,7.02
2018-04-07T02:36:55.536Z,7.02
2018-04-07T02:38:12.740Z,7.02
2018-04-07T02:38:50.917Z,7.03
2018-04-07T02:40:20.063Z,6.99
2018-04-07T02:41:18.326Z,6.99
2018-04-07T02:42:19.805Z,6.99
2018-04-07T02:43:24.053Z,6.99
2018-04-07T02:44:18.058Z,7.00
2018-04-07T02:45:17.905Z,7.00
2018-04-07T02:46:19.931Z,7.00
2018-04-07T02:47:21.189Z,6.97
2018-04-07T02:48:22.188Z,6.96
2018-04-07T02:49:20.825Z,6.96
2018-04-07T03:00:01.511Z,6.84
2018-04-07T03:01:02.012Z,6.79
2018-04-07T03:02:55.725Z,6.77
2018-04-07T03:05:54.325Z,6.72
2018-04-07T03:07:22.899Z,6.69
2018-04-07T03:21:55.805Z,6.39
2018-04-07T03:23:30.299Z,6.44
2018-04-07T03:24:30.954Z,6.44
2018-04-07T03:25:28.664Z,6.44
2018-04-07T03:29:24.438Z,6.51
2018-04-07T03:30:54.204Z,6.46
2018-04-07T03:33:53.801Z,6.44
2018-04-07T03:34:56.004Z,6.42
2018-04-07T03:36:22.284Z,6.42
2018-04-07T03:37:22.676Z,6.44
2018-04-07T03:51:54.202Z,6.31
2018-04-07T03:52:55.231Z,6.33
2018-04-07T03:55:32.567Z,6.42
2018-04-07T03:56:33.284Z,6.41
2018-04-07T03:57:54.287Z,6.44
2018-04-07T03:59:14.904Z,6.42
2018-04-07T04:00:15.559Z,6.46
2018-04-07T04:01:15.810Z,6.46
2018-04-07T04:02:36.180Z,6.46
2018-04-07T04:03:36.851Z,6.46
2018-04-07T04:04:37.356Z,6.45
2018-04-07T04:05:36.630Z,6.45
2018-04-07T04:06:37.433Z,6.44
2018-04-07T04:07:37.151Z,6.45
2018-04-07T04:08:36.903Z,6.46
2018-04-07T04:09:36.199Z,6.48
2018-04-07T04:10:37.099Z,6.48
2018-04-07T04:11:36.807Z,6.48
2018-04-07T04:12:37.194Z,6.48
2018-04-07T04:13:36.973Z,6.44
2018-04-07T04:14:36.228Z,6.42
2018-04-07T04:16:18.621Z,6.48
2018-04-07T04:17:19.075Z,6.46
2018-04-07T04:18:19.446Z,6.44
2018-04-07T04:19:19.097Z,6.44
2018-04-07T04:20:18.466Z,6.45
2018-04-07T04:21:19.022Z,6.51
2018-04-07T04:22:18.494Z,6.49
2018-04-07T04:23:18.790Z,6.46
2018-04-07T04:24:19.195Z,6.48
2018-04-07T04:25:19.033Z,6.45
2018-04-07T04:26:19.369Z,6.48
2018-04-07T04:27:18.722Z,6.48
2018-04-07T04:28:19.477Z,6.51
2018-04-07T04:29:19.186Z,6.54
2018-04-07T04:30:18.541Z,6.56
2018-04-07T04:31:18.750Z,6.57
2018-04-07T04:32:42.140Z,6.52
2018-04-07T04:33:43.034Z,6.52
2018-04-07T04:34:42.469Z,6.51
2018-04-07T04:35:43.208Z,6.51
2018-04-07T04:37:02.834Z,6.48
2018-04-07T04:38:03.533Z,6.48
2018-04-07T04:39:03.452Z,6.49
2018-04-07T04:40:03.238Z,6.46
2018-04-07T04:41:04.101Z,6.44
2018-04-07T04:42:03.967Z,6.39
2018-04-07T04:43:03.639Z,6.38
2018-04-07T04:44:03.087Z,6.35
2018-04-07T04:45:03.545Z,6.33
2018-04-07T04:46:03.155Z,6.33
2018-04-07T04:47:03.835Z,6.38
2018-04-07T04:48:03.516Z,6.39
2018-04-07T04:49:02.921Z,6.36
2018-04-07T04:50:03.427Z,6.38
2018-04-07T04:51:03.708Z,6.41
2018-04-07T04:52:03.329Z,6.39
2018-04-07T04:53:03.684Z,6.36
2018-04-07T04:54:03.349Z,6.35
2018-04-07T04:55:04.368Z,6.35
2018-04-07T04:56:28.139Z,6.38
2018-04-07T04:57:27.779Z,6.39
2018-04-07T04:58:27.624Z,6.41
2018-04-07T05:00:45.587Z,6.41
2018-04-07T05:01:46.011Z,6.41
2018-04-07T05:02:45.742Z,6.42
2018-04-07T05:03:46.425Z,6.44
2018-04-07T05:05:07.193Z,6.44
2018-04-07T05:06:08.034Z,6.46
2018-04-07T05:07:07.616Z,6.48
2018-04-07T05:08:08.413Z,6.52
2018-04-07T05:09:08.584Z,6.54
2018-04-07T05:52:33.216Z,9.55
2018-04-07T05:53:33.761Z,9.55
2018-04-07T05:54:33.457Z,9.62
2018-04-07T05:55:34.128Z,9.65
2018-04-07T05:56:33.677Z,9.65
2018-04-07T05:58:21.754Z,9.62
2018-04-07T05:59:50.883Z,9.68
2018-04-07T06:02:11.245Z,9.76
2018-04-07T06:03:53.540Z,9.86
2018-04-07T06:05:13.520Z,9.77
2018-04-07T06:06:57.426Z,9.54
2018-04-07T06:07:58.867Z,9.48
2018-04-07T06:10:06.757Z,9.44
2018-04-07T06:11:35.080Z,9.47
2018-04-07T06:12:38.325Z,9.40
2018-04-07T06:13:36.272Z,9.39
2018-04-07T06:15:34.330Z,9.21
2018-04-07T06:18:19.277Z,9.31
2018-04-07T06:19:20.147Z,9.31
2018-04-07T06:20:20.128Z,9.31
2018-04-07T06:21:20.971Z,9.25
2018-04-07T06:22:20.872Z,9.22
2018-04-07T06:23:40.845Z,9.13
2018-04-07T06:24:41.115Z,9.18
2018-04-07T06:25:41.915Z,9.25
2018-04-07T06:26:41.712Z,9.31
2018-04-07T06:27:41.680Z,9.34
2018-04-07T06:28:43.178Z,9.43
2018-04-07T06:29:45.188Z,9.74
2018-04-07T06:30:41.225Z,10.05
2018-04-07T06:31:43.310Z,10.22
2018-04-07T06:32:41.749Z,10.53
2018-04-07T06:33:41.871Z,10.78
2018-04-07T06:34:44.741Z,10.96
2018-04-07T06:35:41.290Z,11.05
2018-04-07T06:36:42.400Z,11.17
2018-04-07T06:37:41.987Z,11.25
2018-04-07T06:38:41.786Z,11.18
2018-04-07T06:39:40.730Z,11.29
2018-04-07T06:40:41.773Z,11.50
2018-04-07T06:41:41.276Z,11.66
2018-04-07T06:42:42.159Z,11.80
2018-04-07T06:43:41.103Z,11.81
2018-04-07T06:44:40.770Z,11.75
2018-04-07T06:45:41.809Z,11.78
2018-04-07T06:46:42.279Z,11.90
2018-04-07T06:47:41.973Z,11.91
2018-04-07T06:48:41.151Z,11.97
2018-04-07T06:50:03.182Z,12.07
2018-04-07T06:51:04.539Z,12.28
2018-04-07T06:52:03.255Z,12.55
2018-04-07T06:53:02.970Z,12.72
2018-04-07T06:54:02.884Z,12.58
2018-04-07T06:55:02.569Z,12.75
2018-04-07T06:56:03.536Z,12.78
2018-04-07T06:57:06.062Z,12.68
2018-04-07T06:58:04.440Z,12.78
2018-04-07T06:59:25.060Z,12.57
2018-04-07T07:00:26.114Z,12.57
2018-04-07T07:01:26.254Z,12.78
2018-04-07T07:02:26.407Z,12.98
2018-04-07T07:03:25.598Z,13.09
2018-04-07T07:04:26.242Z,13.12
2018-04-07T07:05:27.121Z,13.19
2018-04-07T07:06:28.360Z,13.44
2018-04-07T07:08:19.991Z,13.92
2018-04-07T07:09:17.920Z,14.03
2018-04-07T07:10:41.403Z,13.93
2018-04-07T07:11:42.052Z,13.62
2018-04-07T07:12:45.287Z,13.60
2018-04-07T07:13:43.459Z,13.71
2018-04-07T07:14:43.319Z,13.89
2018-04-07T07:15:41.249Z,14.04
2018-04-07T07:17:07.690Z,14.07
2018-04-07T07:18:05.309Z,14.11
2018-04-07T07:19:27.814Z,14.10
2018-04-07T07:20:28.918Z,14.14
2018-04-07T07:21:32.552Z,14.18
2018-04-07T07:22:38.516Z,14.25
2018-04-07T07:23:30.423Z,14.54
2018-04-07T07:24:29.899Z,14.81
2018-04-07T07:25:29.831Z,14.82
2018-04-07T07:26:28.207Z,15.17
2018-04-07T07:27:28.337Z,15.49
2018-04-07T07:28:28.641Z,15.55
2018-04-07T07:29:28.754Z,15.76
2018-04-07T07:30:26.650Z,15.79
2018-04-07T07:31:52.253Z,16.00
2018-04-07T07:32:54.074Z,16.35
2018-04-07T07:33:52.171Z,16.66
2018-04-07T07:34:52.930Z,16.72
2018-04-07T07:35:51.929Z,16.76
2018-04-07T07:37:21.080Z,16.61
2018-04-07T07:38:19.689Z,16.13
2018-04-07T07:39:18.991Z,15.88
2018-04-07T07:41:01.552Z,15.90
2018-04-07T07:42:03.629Z,15.95
2018-04-07T07:43:02.911Z,16.09
2018-04-07T07:44:01.628Z,16.41
2018-04-07T07:45:04.094Z,16.16
2018-04-07T07:46:03.664Z,16.08
2018-04-07T07:47:23.763Z,15.97
2018-04-07T07:48:24.362Z,16.24
2018-04-07T07:49:25.298Z,16.42
2018-04-07T07:50:26.069Z,16.56
2018-04-07T07:51:24.247Z,16.58
2018-04-07T07:52:24.419Z,16.78
2018-04-07T07:53:24.926Z,16.68
2018-04-07T07:54:24.372Z,16.51
2018-04-07T07:56:21.480Z,16.43
2018-04-07T07:57:19.513Z,16.41
2018-04-07T07:58:45.690Z,16.64
2018-04-07T08:00:03.095Z,16.87
2018-04-07T08:01:02.969Z,16.87
2018-04-07T08:02:03.035Z,17.01
2018-04-07T08:03:05.038Z,17.14
2018-04-07T08:04:03.093Z,17.26
2018-04-07T08:05:07.052Z,17.49
2018-04-07T08:07:12.046Z,17.79
2018-04-07T08:08:10.602Z,17.90
2018-04-07T08:09:08.679Z,17.95
2018-04-07T08:11:32.143Z,18.19
2018-04-07T08:12:31.980Z,17.94
2018-04-07T08:13:59.737Z,18.25
2018-04-07T08:16:45.715Z,18.49
2018-04-07T08:18:07.144Z,18.56
2018-04-07T08:19:08.201Z,18.37
2018-04-07T08:20:31.514Z,17.98
2018-04-07T08:21:31.274Z,18.00
2018-04-07T08:22:31.632Z,18.20
2018-04-07T08:23:31.767Z,18.41
2018-04-07T08:25:16.378Z,18.70
2018-04-07T08:26:47.033Z,18.59
2018-04-07T08:27:42.293Z,18.44
2018-04-07T08:28:46.176Z,18.33
2018-04-07T08:29:42.815Z,18.29
2018-04-07T08:30:42.838Z,18.49
2018-04-07T08:31:41.776Z,18.73
2018-04-07T08:32:42.839Z,19.12
2018-04-07T08:33:41.635Z,19.30
2018-04-07T08:34:42.959Z,19.36
2018-04-07T08:36:13.056Z,19.64
2018-04-07T08:37:14.747Z,19.63
2018-04-07T08:38:13.566Z,19.49
2018-04-07T08:40:11.686Z,19.70
2018-04-07T08:41:11.570Z,19.70
2018-04-07T08:42:13.154Z,19.55
2018-04-07T08:43:14.381Z,19.82
2018-04-07T08:44:48.761Z,19.84
2018-04-07T08:46:13.126Z,19.99
2018-04-07T08:47:13.543Z,19.76
2018-04-07T08:48:13.298Z,19.67
2018-04-07T08:49:13.548Z,19.55
2018-04-07T08:50:14.079Z,19.66
2018-04-07T08:51:36.091Z,20.28
2018-04-07T08:52:57.040Z,20.72
2018-04-07T08:53:58.454Z,21.02
2018-04-07T08:54:57.892Z,21.00
2018-04-07T08:55:57.900Z,21.14
2018-04-07T08:56:57.704Z,21.25
2018-04-07T08:57:57.616Z,21.35
2018-04-07T08:59:39.171Z,21.52
2018-04-07T09:00:40.055Z,21.48
2018-04-07T09:01:39.540Z,21.55
2018-04-07T09:02:39.566Z,22.18
2018-04-07T09:03:39.758Z,22.54
2018-04-07T09:04:39.874Z,22.66
2018-04-07T09:05:40.556Z,22.63
2018-04-07T09:06:39.206Z,22.83
2018-04-07T09:07:40.026Z,23.17
2018-04-07T09:08:39.682Z,23.47
2018-04-07T09:10:01.548Z,23.59
2018-04-07T09:11:01.622Z,23.37
2018-04-07T09:12:23.752Z,23.47
2018-04-07T09:13:24.412Z,23.74
2018-04-07T09:14:23.887Z,24.36
2018-04-07T09:15:44.488Z,24.66
2018-04-07T09:16:45.490Z,24.02
2018-04-07T09:18:06.792Z,24.02
2018-04-07T09:19:07.532Z,24.38
2018-04-07T09:20:07.463Z,24.86
2018-04-07T09:21:07.515Z,24.80
2018-04-07T09:22:07.468Z,24.51
2018-04-07T09:23:07.353Z,24.29
2018-04-07T09:24:07.390Z,24.10
2018-04-07T09:25:07.449Z,23.95
2018-04-07T09:26:06.900Z,24.03
2018-04-07T09:27:06.860Z,24.29
2018-04-07T09:28:06.954Z,24.55
2018-04-07T09:29:06.609Z,24.76
2018-04-07T09:30:30.839Z,25.50
2018-04-07T09:31:30.464Z,25.58
2018-04-07T09:32:31.241Z,25.55
2018-04-07T09:33:31.242Z,25.26
2018-04-07T09:34:31.076Z,25.35
2018-04-07T09:36:12.232Z,25.69
2018-04-07T09:37:13.270Z,26.02
2018-04-07T09:38:13.090Z,26.15
2018-04-07T09:39:34.626Z,25.91
2018-04-07T09:40:36.183Z,26.05
2018-04-07T09:41:34.980Z,25.80
2018-04-07T09:42:34.669Z,25.73
2018-04-07T09:43:35.573Z,25.91
2018-04-07T09:44:35.218Z,25.70
2018-04-07T09:45:56.800Z,25.87
2018-04-07T09:46:57.333Z,25.96
2018-04-07T09:47:56.927Z,25.98
2018-04-07T09:48:56.643Z,26.18
2018-04-07T09:49:57.314Z,26.02
2018-04-07T09:50:56.953Z,26.45
2018-04-07T09:51:56.898Z,26.71
2018-04-07T09:52:56.901Z,26.75
2018-04-07T09:53:56.819Z,26.88
2018-04-07T09:54:56.567Z,26.65
2018-04-07T09:55:57.273Z,26.78
2018-04-07T09:56:56.988Z,26.83
2018-04-07T09:57:57.067Z,26.78
2018-04-07T09:59:18.145Z,26.90
2018-04-07T10:00:17.841Z,27.05
2018-04-07T10:01:40.142Z,27.47
2018-04-07T10:02:40.205Z,27.64
2018-04-07T10:03:40.705Z,27.93
2018-04-07T10:04:40.289Z,27.40
2018-04-07T10:05:40.450Z,27.54
2018-04-07T10:06:40.503Z,27.48
2018-04-07T10:07:40.507Z,27.25
2018-04-07T10:08:40.078Z,27.10
2018-04-07T10:09:40.745Z,27.21
2018-04-07T10:10:40.443Z,27.26
2018-04-07T10:11:40.312Z,27.07
2018-04-07T10:12:40.294Z,27.03
2018-04-07T10:13:39.919Z,26.96
2018-04-07T10:14:40.672Z,27.18
2018-04-07T10:16:02.738Z,27.80
2018-04-07T10:17:02.648Z,27.67
2018-04-07T10:18:02.667Z,27.36
2018-04-07T10:19:02.582Z,26.80
2018-04-07T10:20:02.423Z,27.00
2018-04-07T10:21:02.123Z,27.35
2018-04-07T10:22:03.107Z,27.77
2018-04-07T10:23:02.177Z,28.02
2018-04-07T10:24:23.867Z,28.30
2018-04-07T10:25:24.556Z,28.41
2018-04-07T10:26:24.779Z,28.86
2018-04-07T10:27:24.590Z,29.02
2018-04-07T10:28:24.505Z,29.22
2018-04-07T10:29:24.159Z,29.16
2018-04-07T10:30:24.509Z,29.13
2018-04-07T10:31:24.526Z,29.04
2018-04-07T10:32:24.632Z,29.27
2018-04-07T10:33:24.428Z,29.56
2018-04-07T10:34:24.387Z,29.78
2018-04-07T10:35:24.366Z,29.86
2018-04-07T10:36:23.875Z,29.31
2018-04-07T10:37:48.018Z,29.05
2018-04-07T10:38:48.787Z,28.81
2018-04-07T10:39:49.482Z,28.88
2018-04-07T10:40:48.451Z,28.89
2018-04-07T10:41:48.026Z,28.42
2018-04-07T10:43:10.088Z,28.62
2018-04-07T10:44:31.130Z,28.86
2018-04-07T10:45:31.880Z,28.74
2018-04-07T10:46:31.872Z,28.51
2018-04-07T10:47:31.797Z,28.75
2018-04-07T10:48:31.548Z,28.64
2018-04-07T10:49:31.440Z,28.75
2018-04-07T10:50:31.062Z,29.05
2018-04-07T10:51:31.628Z,29.41
2018-04-07T10:52:31.234Z,29.32
2018-04-07T10:53:31.241Z,29.69
2018-04-07T10:54:31.407Z,29.61
2018-04-07T10:55:31.496Z,29.84
2018-04-07T10:56:32.208Z,30.00
2018-04-07T10:57:31.480Z,29.88
2018-04-07T10:58:31.675Z,29.65
2018-04-07T10:59:31.509Z,29.45
2018-04-07T11:00:31.703Z,29.65
2018-04-07T11:01:31.538Z,30.05
2018-04-07T11:02:31.550Z,30.51
2018-04-07T11:03:52.857Z,30.46
2018-04-07T11:04:53.980Z,30.61
2018-04-07T11:05:54.077Z,30.32
2018-04-07T11:06:54.032Z,30.09
2018-04-07T11:07:53.805Z,29.90
2018-04-07T11:08:53.591Z,29.59
2018-04-07T11:09:53.571Z,29.59
2018-04-07T11:10:53.816Z,29.47
2018-04-07T11:11:53.656Z,29.39
2018-04-07T11:12:53.748Z,29.56
2018-04-07T11:13:53.497Z,30.03
2018-04-07T11:14:53.575Z,30.10
2018-04-07T11:15:53.441Z,30.06
2018-04-07T11:16:53.624Z,29.84
2018-04-07T11:18:14.644Z,29.72
2018-04-07T11:19:16.948Z,29.57
2018-04-07T11:20:15.757Z,29.51
2018-04-07T11:21:18.556Z,29.45
2018-04-07T11:22:15.891Z,29.71
2018-04-07T11:23:15.513Z,29.79
2018-04-07T11:24:15.615Z,29.98
2018-04-07T11:25:15.369Z,30.03
2018-04-07T11:26:15.288Z,30.40
2018-04-07T11:27:14.923Z,30.12
2018-04-07T11:28:15.876Z,30.43
2018-04-07T11:29:36.380Z,30.46
2018-04-07T11:30:37.431Z,30.25
2018-04-07T11:31:37.138Z,30.32
2018-04-07T11:32:37.215Z,29.71
2018-04-07T11:33:36.966Z,29.42
2018-04-07T11:34:36.849Z,29.10
2018-04-07T11:35:36.930Z,28.94
2018-04-07T11:36:58.149Z,28.70
2018-04-07T11:37:57.879Z,29.07
2018-04-07T11:38:58.871Z,29.34
2018-04-07T11:40:40.256Z,29.50
2018-04-07T11:42:03.281Z,29.66
2018-04-07T11:43:04.015Z,29.66
2018-04-07T11:44:03.608Z,29.87
2018-04-07T11:45:04.515Z,30.00
2018-04-07T11:46:04.164Z,30.19
2018-04-07T11:47:04.372Z,30.19
2018-04-07T11:48:04.674Z,30.27
2018-04-07T11:49:04.313Z,30.43
2018-04-07T11:50:04.186Z,30.40
2018-04-07T11:51:03.874Z,30.51
2018-04-07T11:52:03.879Z,30.78
2018-04-07T11:53:03.530Z,30.87
2018-04-07T11:54:04.236Z,30.87
2018-04-07T11:55:04.308Z,30.90
2018-04-07T11:56:04.076Z,30.92
2018-04-07T11:57:04.027Z,30.87
2018-04-07T11:58:04.083Z,30.85
2018-04-07T11:59:03.853Z,30.92
2018-04-07T12:00:03.839Z,31.20
2018-04-07T12:01:25.031Z,31.31
2018-04-07T12:02:24.594Z,30.99
2018-04-07T12:03:25.454Z,30.81
2018-04-07T12:04:25.552Z,30.81
2018-04-07T12:05:25.629Z,30.37
2018-04-07T12:06:25.573Z,30.02
2018-04-07T12:07:46.553Z,29.98
2018-04-07T12:08:47.614Z,29.76
2018-04-07T12:09:47.222Z,29.60
2018-04-07T12:11:07.620Z,29.79
2018-04-07T12:12:08.321Z,29.97
2018-04-07T12:13:07.913Z,29.95
2018-04-07T12:14:08.665Z,30.34
2018-04-07T12:15:08.232Z,30.61
2018-04-07T12:16:08.225Z,30.80
2018-04-07T12:17:08.469Z,30.97
2018-04-07T12:18:08.107Z,31.12
2018-04-07T12:19:08.772Z,31.00
2018-04-07T12:20:08.553Z,30.68
2018-04-07T12:21:08.416Z,30.46
2018-04-07T12:22:08.222Z,30.69
2018-04-07T12:23:09.928Z,30.81
2018-04-07T12:24:08.195Z,30.92
2018-04-07T12:25:08.476Z,31.05
2018-04-07T12:26:30.113Z,31.14
2018-04-07T12:27:30.339Z,30.97
2018-04-07T12:28:30.282Z,30.73
2018-04-07T12:29:30.158Z,30.44
2018-04-07T12:30:30.320Z,30.47
2018-04-07T12:31:30.391Z,30.63
2018-04-07T12:32:50.852Z,30.69
2018-04-07T12:34:11.706Z,30.48
2018-04-07T12:35:11.791Z,30.50
2018-04-07T12:36:33.572Z,30.24
2018-04-07T12:37:34.649Z,30.48
2018-04-07T12:38:34.630Z,30.57
2018-04-07T12:39:34.469Z,30.40
2018-04-07T12:40:34.624Z,30.57
2018-04-07T12:41:34.473Z,30.48
2018-04-07T12:42:34.186Z,30.70
2018-04-07T12:43:34.292Z,30.66
2018-04-07T12:44:55.984Z,30.70
2018-04-07T12:45:56.576Z,30.55
2018-04-07T12:46:56.392Z,30.68
2018-04-07T12:48:17.547Z,30.54
2018-04-07T12:49:18.339Z,30.73
2018-04-07T12:50:18.179Z,30.94
2018-04-07T12:51:17.760Z,30.91
2018-04-07T12:52:18.038Z,31.03
2018-04-07T12:53:18.530Z,31.34
2018-04-07T12:54:18.195Z,31.58
2018-04-07T12:55:18.164Z,31.62
2018-04-07T12:56:17.988Z,31.25
2018-04-07T12:57:38.531Z,31.03
2018-04-07T12:58:39.245Z,30.94
2018-04-07T12:59:39.192Z,31.05
2018-04-07T13:00:39.251Z,31.03
2018-04-07T13:01:39.207Z,30.65
2018-04-07T13:02:39.348Z,30.62
2018-04-07T13:03:39.129Z,30.92
2018-04-07T13:04:39.291Z,31.34
2018-04-07T13:05:39.450Z,31.47
2018-04-07T13:06:39.224Z,31.49
2018-04-07T13:07:39.446Z,31.47
2018-04-07T13:08:39.193Z,31.55
2018-04-07T13:10:00.515Z,31.34
2018-04-07T13:11:01.266Z,31.39
2018-04-07T13:12:01.271Z,31.31
2018-04-07T13:14:03.407Z,30.59
2018-04-07T13:15:25.457Z,29.71
2018-04-07T13:16:26.641Z,29.59
2018-04-07T13:17:25.428Z,29.57
2018-04-07T13:18:26.444Z,29.65
2018-04-07T13:19:26.284Z,29.75
2018-04-07T13:20:48.004Z,29.81
2018-04-07T13:21:48.006Z,30.09
2018-04-07T13:23:10.077Z,30.32
2018-04-07T13:24:10.738Z,30.24
2018-04-07T13:25:10.418Z,30.46
2018-04-07T13:26:31.990Z,30.30
2018-04-07T13:27:32.827Z,30.02
2018-04-07T13:28:32.941Z,29.69
2018-04-07T13:29:53.484Z,29.39
2018-04-07T13:30:54.725Z,29.23
2018-04-07T13:31:54.361Z,29.13
2018-04-07T13:32:54.470Z,28.93
2018-04-07T13:34:15.581Z,29.32
2018-04-07T13:35:17.021Z,29.57
2018-04-07T13:36:15.978Z,29.84
2018-04-07T13:37:37.757Z,29.66
2018-04-07T13:38:38.703Z,29.14
2018-04-07T13:39:38.479Z,29.13
2018-04-07T13:40:59.862Z,29.04
2018-04-07T13:42:00.498Z,29.22
2018-04-07T13:43:00.466Z,29.29
2018-04-07T13:44:00.349Z,29.38
2018-04-07T13:45:00.112Z,29.47
2018-04-07T13:46:23.111Z,29.35
2018-04-07T13:47:22.747Z,29.26
2018-04-07T13:48:44.564Z,29.22
2018-04-07T13:50:07.017Z,29.23
2018-04-07T13:51:06.853Z,29.16
2018-04-07T13:52:08.002Z,29.20
2018-04-07T13:53:06.761Z,29.17
2018-04-07T13:54:07.776Z,29.23
2018-04-07T13:55:07.587Z,29.31
2018-04-07T13:56:29.253Z,29.07
2018-04-07T13:57:29.296Z,29.01
2018-04-07T13:58:28.996Z,29.17
2018-04-07T13:59:29.558Z,28.98
2018-04-07T14:00:29.224Z,29.12
2018-04-07T14:01:29.340Z,28.79
2018-04-07T14:02:29.652Z,28.57
2018-04-07T14:03:29.746Z,28.57
2018-04-07T14:04:29.552Z,28.81
2018-04-07T14:05:29.294Z,29.05
2018-04-07T14:06:31.175Z,29.24
2018-04-07T14:07:30.159Z,29.07
2018-04-07T14:08:53.169Z,28.69
2018-04-07T14:09:55.796Z,28.60
2018-04-07T14:10:52.997Z,28.57
2018-04-07T14:11:53.463Z,28.63
2018-04-07T14:12:53.103Z,28.78
2018-04-07T14:13:52.124Z,28.98
2018-04-07T14:14:52.350Z,28.98
2018-04-07T14:15:52.581Z,29.19
2018-04-07T14:16:53.148Z,29.01
2018-04-07T14:17:53.055Z,28.84
2018-04-07T14:18:52.671Z,28.52
2018-04-07T14:19:52.826Z,28.12
2018-04-07T14:20:53.595Z,27.80
2018-04-07T14:22:17.409Z,27.60
2018-04-07T14:23:19.930Z,27.52
2018-04-07T14:24:16.793Z,27.39
2018-04-07T14:25:16.916Z,27.48
2018-04-07T14:26:16.999Z,27.70
2018-04-07T14:27:16.873Z,28.02
2018-04-07T14:28:16.706Z,28.02
2018-04-07T14:29:16.577Z,27.93
2018-04-07T14:30:16.602Z,27.78
2018-04-07T14:31:16.550Z,27.59
2018-04-07T14:32:38.349Z,27.39
2018-04-07T14:33:59.749Z,27.37
2018-04-07T14:35:00.202Z,27.40
2018-04-07T14:36:00.017Z,27.40
2018-04-07T14:37:01.064Z,27.17
2018-04-07T14:37:59.793Z,27.17
2018-04-07T14:39:22.138Z,27.14
2018-04-07T14:40:22.002Z,27.20
2018-04-07T14:41:23.117Z,27.30
2018-04-07T14:42:21.961Z,27.30
2018-04-07T14:43:44.869Z,27.39
2018-04-07T14:44:44.738Z,27.29
2018-04-07T14:45:45.615Z,27.11
2018-04-07T14:47:07.053Z,26.97
2018-04-07T14:48:06.984Z,26.74
2018-04-07T14:49:08.124Z,26.65
2018-04-07T14:50:08.111Z,26.71
2018-04-07T14:51:48.429Z,26.85
2018-04-07T14:52:49.499Z,26.95
2018-04-07T14:53:49.526Z,26.97
2018-04-07T14:54:49.517Z,27.02
2018-04-07T14:55:49.249Z,26.96
2018-04-07T14:56:49.199Z,26.90
2018-04-07T14:57:49.117Z,26.81
2018-04-07T14:58:48.897Z,26.90
2018-04-07T14:59:48.569Z,26.97
2018-04-07T15:00:54.708Z,26.95
2018-04-07T15:01:51.644Z,27.02
2018-04-07T15:03:08.947Z,26.71
2018-04-07T15:04:08.977Z,26.52
2018-04-07T15:05:09.007Z,26.51
2018-04-07T15:06:09.232Z,26.52
2018-04-07T15:07:08.182Z,26.58
2018-04-07T15:08:29.074Z,26.65
2018-04-07T15:09:28.931Z,26.63
2018-04-07T15:10:29.679Z,26.56
2018-04-07T15:11:29.713Z,26.52
2018-04-07T15:12:29.725Z,26.47
2018-04-07T15:13:29.521Z,26.43
2018-04-07T15:14:29.512Z,26.38
2018-04-07T15:15:29.352Z,26.34
2018-04-07T15:16:54.251Z,26.36
2018-04-07T15:18:36.136Z,26.34
2018-04-07T15:19:35.893Z,26.29
2018-04-07T15:20:36.708Z,26.29
2018-04-07T15:21:37.100Z,26.29
2018-04-07T15:22:36.895Z,26.23
2018-04-07T15:23:36.740Z,26.09
2018-04-07T15:24:36.451Z,26.18
2018-04-07T15:25:36.298Z,26.16
2018-04-07T15:26:36.340Z,26.15
2018-04-07T15:27:36.380Z,25.93
2018-04-07T15:28:36.196Z,25.83
2018-04-07T15:29:35.885Z,25.85
2018-04-07T15:30:36.721Z,25.91
2018-04-07T15:31:36.683Z,26.00
2018-04-07T15:32:37.572Z,26.03
2018-04-07T15:33:36.380Z,26.00